createdAt,value
2018-07-22T00:00:12.403Z,44.90
2018-07-22T00:02:40.996Z,44.70
2018-07-22T00:05:09.116Z,45.00
2018-07-22T00:07:37.716Z,45.50
2018-07-22T00:10:07.760Z,47.00
2018-07-22T00:12:35.864Z,47.50
2018-07-22T00:15:04.171Z,47.30
2018-07-22T00:17:32.305Z,47.20
2018-07-22T00:20:00.380Z,47.30
2018-07-22T00:22:28.471Z,47.40
2018-07-22T00:24:56.577Z,47.20
2018-07-22T00:27:24.692Z,46.50
2018-07-22T00:29:52.781Z,46.00
2018-07-22T00:32:20.908Z,45.80
2018-07-22T00:34:49.001Z,45.80
2018-07-22T00:37:17.108Z,45.70
2018-07-22T00:39:45.216Z,46.10
2018-07-22T00:42:13.317Z,45.90
2018-07-22T00:44:41.387Z,45.80
2018-07-22T00:47:09.491Z,46.00
2018-07-22T00:49:37.731Z,46.40
2018-07-22T00:52:05.835Z,46.60
2018-07-22T00:54:33.955Z,46.60
2018-07-22T00:57:02.075Z,46.60
2018-07-22T00:59:30.195Z,47.30
2018-07-22T01:01:58.284Z,47.70
2018-07-22T01:04:26.385Z,47.40
2018-07-22T01:06:54.483Z,47.10
2018-07-22T01:11:50.492Z,47.60
2018-07-22T01:14:18.631Z,47.50
2018-07-22T01:16:46.760Z,47.30
2018-07-22T01:21:42.744Z,47.40
2018-07-22T01:24:10.842Z,48.50
2018-07-22T01:26:38.965Z,49.20
2018-07-22T01:29:07.140Z,49.80
2018-07-22T01:31:35.231Z,49.60
2018-07-22T01:34:03.340Z,49.80
2018-07-22T01:36:31.459Z,50.00
2018-07-22T01:38:59.591Z,49.80
2018-07-22T01:41:27.685Z,49.40
2018-07-22T01:43:55.843Z,48.90
2018-07-22T01:46:23.974Z,49.30
2018-07-22T01:48:52.108Z,49.80
2018-07-22T01:51:20.220Z,49.60
2018-07-22T01:53:48.340Z,49.50
2018-07-22T01:56:16.463Z,49.10
2018-07-22T01:58:44.604Z,48.70
2018-07-22T02:01:12.772Z,48.50
2018-07-22T02:03:40.937Z,48.30
2018-07-22T02:06:09.090Z,48.70
2018-07-22T02:08:37.176Z,49.20
2018-07-22T02:16:01.093Z,49.80
2018-07-22T02:18:29.232Z,50.00
2018-07-22T02:20:57.386Z,50.10
2018-07-22T02:23:25.449Z,50.20
2018-07-22T02:25:53.595Z,50.20
2018-07-22T02:28:21.755Z,50.20
2018-07-22T02:30:49.881Z,50.60
2018-07-22T02:33:18.039Z,50.80
2018-07-22T02:35:46.136Z,51.00
2018-07-22T02:38:14.260Z,51.30
2018-07-22T02:40:42.411Z,51.20
2018-07-22T02:43:10.597Z,51.30
2018-07-22T02:48:06.605Z,51.60
2018-07-22T02:50:34.724Z,51.60
2018-07-22T02:53:02.831Z,51.60
2018-07-22T02:55:30.975Z,51.70
2018-07-22T03:00:27.010Z,52.50
2018-07-22T03:02:55.156Z,52.70
2018-07-22T03:05:23.299Z,52.90
2018-07-22T03:07:51.434Z,53.10
2018-07-22T03:10:19.531Z,53.00
2018-07-22T03:12:47.668Z,53.80
2018-07-22T03:17:43.767Z,53.50
2018-07-22T03:20:11.916Z,53.40
2018-07-22T03:22:40.011Z,53.10
2018-07-22T03:25:08.243Z,53.90
2018-07-22T03:27:36.522Z,54.00
2018-07-22T03:30:05.272Z,54.20
2018-07-22T03:32:33.374Z,54.20
2018-07-22T03:37:29.344Z,54.90
2018-07-22T03:39:57.474Z,54.60
2018-07-22T03:42:25.565Z,54.80
2018-07-22T03:44:53.687Z,54.90
2018-07-22T03:47:21.808Z,55.00
2018-07-22T03:49:49.922Z,55.00
2018-07-22T03:52:18.039Z,55.40
2018-07-22T03:54:46.155Z,55.10
2018-07-22T03:57:14.241Z,55.00
2018-07-22T03:59:42.349Z,54.90
2018-07-22T04:02:10.466Z,55.30
2018-07-22T04:04:38.615Z,55.80
2018-07-22T04:07:07.397Z,56.00
2018-07-22T04:09:35.468Z,55.70
2018-07-22T04:12:03.594Z,56.00
2018-07-22T04:14:31.700Z,56.90
2018-07-22T04:16:59.827Z,57.30
2018-07-22T04:19:27.956Z,57.70
2018-07-22T04:21:56.064Z,57.50
2018-07-22T04:24:24.164Z,57.40
2018-07-22T04:26:52.358Z,58.20
2018-07-22T04:29:20.471Z,58.60
2018-07-22T04:31:48.574Z,58.60
2018-07-22T04:34:16.662Z,58.70
2018-07-22T04:36:44.768Z,58.90
2018-07-22T04:39:12.855Z,59.00
2018-07-22T04:44:08.932Z,59.20
2018-07-22T04:46:37.023Z,58.90
2018-07-22T04:49:05.144Z,58.90
2018-07-22T04:54:01.144Z,58.60
2018-07-22T04:56:29.255Z,59.00
2018-07-22T04:58:57.351Z,57.80
2018-07-22T05:01:25.440Z,57.60
2018-07-22T05:03:53.595Z,58.00
2018-07-22T05:06:21.759Z,58.10
2018-07-22T05:08:49.831Z,58.10
2018-07-22T05:11:17.903Z,57.00
2018-07-22T05:13:45.985Z,56.70
2018-07-22T05:16:14.108Z,56.20
2018-07-22T05:18:42.176Z,56.30
2018-07-22T05:21:11.073Z,56.30
2018-07-22T05:23:39.159Z,56.70
2018-07-22T05:26:07.239Z,55.80
2018-07-22T05:31:03.255Z,55.20
2018-07-22T05:33:31.339Z,55.50
2018-07-22T05:35:59.444Z,55.40
2018-07-22T05:38:27.492Z,56.20
2018-07-22T05:40:55.596Z,56.00
2018-07-22T05:43:23.705Z,54.90
2018-07-22T05:45:51.813Z,54.00
2018-07-22T05:48:19.887Z,53.60
2018-07-22T05:53:15.867Z,52.70
2018-07-22T05:55:43.967Z,52.20
2018-07-22T05:58:12.057Z,51.60
2018-07-22T06:00:40.136Z,51.20
2018-07-22T06:03:08.262Z,50.80
2018-07-22T06:05:36.407Z,51.40
2018-07-22T06:08:04.560Z,51.20
2018-07-22T06:10:32.646Z,51.20
2018-07-22T06:13:00.754Z,51.20
2018-07-22T06:15:28.895Z,50.80
2018-07-22T06:20:24.932Z,50.60
2018-07-22T06:22:53.027Z,49.70
2018-07-22T06:25:21.121Z,48.80
2018-07-22T06:27:49.212Z,48.70
2018-07-22T06:30:17.322Z,48.90
2018-07-22T06:32:45.435Z,47.80
2018-07-22T06:35:13.614Z,46.80
2018-07-22T06:37:41.868Z,46.20
2018-07-22T06:40:09.958Z,46.50
2018-07-22T06:42:38.144Z,45.80
2018-07-22T06:45:06.409Z,46.10
2018-07-22T06:47:34.714Z,46.00
2018-07-22T06:50:02.926Z,46.10
2018-07-22T06:52:31.194Z,45.40
2018-07-22T06:54:59.452Z,44.70
2018-07-22T06:57:27.797Z,44.40
2018-07-22T06:59:56.108Z,43.90
2018-07-22T07:02:24.386Z,43.30
2018-07-22T07:04:52.712Z,43.60
2018-07-22T07:07:21.055Z,43.80
2018-07-22T07:09:49.405Z,42.90
2018-07-22T07:12:17.668Z,42.30
2018-07-22T07:14:46.020Z,42.00
2018-07-22T07:17:14.333Z,42.20
2018-07-22T07:19:42.587Z,42.20
2018-07-22T07:22:10.847Z,42.30
2018-07-22T07:24:39.120Z,42.20
2018-07-22T07:27:08.688Z,41.70
2018-07-22T07:29:37.067Z,41.80
2018-07-22T07:32:05.512Z,41.20
2018-07-22T07:34:33.765Z,41.50
2018-07-22T07:39:30.080Z,41.70
2018-07-22T07:41:58.356Z,42.10
2018-07-22T07:44:26.893Z,42.10
2018-07-22T07:46:55.241Z,41.70
2018-07-22T07:49:23.615Z,41.50
2018-07-22T07:51:51.897Z,41.30
2018-07-22T07:54:20.155Z,40.90
2018-07-22T07:56:48.473Z,40.30
2018-07-22T07:59:16.705Z,40.40
2018-07-22T08:01:44.939Z,40.50
2018-07-22T08:04:13.176Z,40.40
2018-07-22T08:06:41.365Z,39.90
2018-07-22T08:09:10.488Z,39.20
2018-07-22T08:11:38.870Z,39.70
2018-07-22T08:14:07.089Z,39.00
2018-07-22T08:16:35.803Z,38.40
2018-07-22T08:19:04.186Z,38.10
2018-07-22T08:21:32.476Z,38.10
2018-07-22T08:24:00.828Z,38.30
2018-07-22T08:26:29.093Z,37.30
2018-07-22T08:29:28.722Z,37.50
2018-07-22T08:31:57.284Z,37.50
2018-07-22T08:34:26.835Z,37.30
2018-07-22T08:36:55.129Z,37.40
2018-07-22T08:39:24.596Z,37.10
2018-07-22T08:41:53.550Z,37.40
2018-07-22T08:44:21.846Z,37.30
2018-07-22T08:46:50.090Z,37.20
2018-07-22T08:51:46.436Z,36.70
2018-07-22T08:54:14.884Z,37.30
2018-07-22T08:56:43.156Z,36.60
2018-07-22T09:01:39.396Z,36.00
2018-07-22T09:04:07.704Z,36.20
2018-07-22T09:09:06.377Z,34.80
2018-07-22T09:11:34.765Z,34.30
2018-07-22T09:14:10.726Z,35.30
2018-07-22T09:16:39.421Z,35.50
2018-07-22T09:19:07.736Z,35.40
2018-07-22T09:21:36.353Z,35.60
2018-07-22T09:24:04.645Z,35.50
2018-07-22T09:26:32.868Z,34.90
2018-07-22T09:31:29.238Z,33.20
2018-07-22T09:36:25.546Z,34.00
2018-07-22T09:38:56.637Z,33.80
2018-07-22T09:41:27.781Z,33.40
2018-07-22T09:43:56.013Z,34.00
2018-07-22T09:46:24.321Z,34.60
2018-07-22T09:48:52.632Z,34.20
2018-07-22T09:51:20.900Z,34.20
2018-07-22T09:53:49.307Z,34.20
2018-07-22T09:58:45.691Z,34.10
2018-07-22T10:01:17.245Z,33.60
2018-07-22T10:03:45.739Z,33.30
2018-07-22T10:06:18.410Z,32.80
2018-07-22T10:08:48.364Z,33.20
2018-07-22T10:11:16.980Z,33.40
2018-07-22T10:16:17.308Z,33.20
2018-07-22T10:18:45.602Z,33.00
2018-07-22T10:21:17.372Z,33.20
2018-07-22T10:23:45.862Z,33.00
2018-07-22T10:26:14.375Z,32.90
2018-07-22T10:28:42.807Z,33.50
2018-07-22T10:31:11.260Z,33.90
2018-07-22T10:33:39.721Z,33.50
2018-07-22T10:36:09.975Z,33.70
2018-07-22T10:38:40.246Z,33.40
2018-07-22T10:41:12.789Z,32.90
2018-07-22T10:43:41.546Z,32.80
2018-07-22T10:46:10.997Z,32.80
2018-07-22T10:48:41.147Z,32.80
2018-07-22T10:51:09.550Z,32.60
2018-07-22T10:53:38.254Z,32.60
2018-07-22T10:56:09.944Z,31.80
2018-07-22T10:58:40.032Z,32.70
2018-07-22T11:01:08.551Z,32.30
2018-07-22T11:03:39.355Z,31.50
2018-07-22T11:06:11.001Z,30.70
2018-07-22T11:08:39.739Z,30.40
2018-07-22T11:11:09.659Z,31.10
2018-07-22T11:13:38.428Z,31.20
2018-07-22T11:18:37.833Z,30.40
2018-07-22T11:21:13.444Z,30.30
2018-07-22T11:23:41.822Z,31.00
2018-07-22T11:26:10.199Z,30.90
2018-07-22T11:28:38.831Z,30.40
2018-07-22T11:31:09.727Z,30.40
2018-07-22T11:33:39.248Z,31.30
2018-07-22T11:36:08.049Z,30.30
2018-07-22T11:38:40.669Z,31.10
2018-07-22T11:41:09.068Z,31.30
2018-07-22T11:46:06.703Z,30.60
2018-07-22T11:48:35.444Z,30.50
2018-07-22T11:51:06.069Z,30.30
2018-07-22T11:53:39.329Z,30.20
2018-07-22T11:58:38.308Z,31.00
2018-07-22T12:01:06.813Z,30.70
2018-07-22T12:03:40.114Z,30.90
2018-07-22T12:06:10.588Z,30.80
2018-07-22T12:11:08.776Z,29.90
2018-07-22T12:13:40.966Z,29.70
2018-07-22T12:16:11.617Z,29.50
2018-07-22T12:18:40.465Z,29.30
2018-07-22T12:21:11.590Z,29.20
2018-07-22T12:23:40.357Z,28.90
2018-07-22T12:26:10.474Z,28.80
2018-07-22T12:28:40.111Z,28.90
2018-07-22T12:31:08.682Z,29.00
2018-07-22T12:33:37.753Z,28.80
2018-07-22T12:36:10.844Z,28.20
2018-07-22T12:38:40.098Z,28.40
2018-07-22T12:41:10.381Z,28.70
2018-07-22T12:43:38.677Z,28.30
2018-07-22T12:46:09.728Z,28.00
2018-07-22T12:48:38.832Z,28.00
2018-07-22T12:51:12.526Z,27.70
2018-07-22T12:53:40.900Z,27.50
2018-07-22T12:56:10.325Z,27.50
2018-07-22T12:58:39.169Z,27.80
2018-07-22T13:01:11.638Z,28.40
2018-07-22T13:03:41.838Z,28.20
2018-07-22T13:06:10.705Z,30.30
2018-07-22T13:11:10.699Z,31.80
2018-07-22T13:13:39.122Z,32.10
2018-07-22T13:16:08.131Z,32.60
2018-07-22T13:18:41.630Z,32.80
2018-07-22T13:21:10.595Z,32.30
2018-07-22T13:23:40.835Z,32.40
2018-07-22T13:26:11.688Z,31.60
2018-07-22T13:31:13.409Z,31.60
2018-07-22T13:33:41.753Z,32.30
2018-07-22T13:38:38.153Z,33.40
2018-07-22T13:41:06.456Z,33.30
2018-07-22T13:43:34.708Z,34.10
2018-07-22T13:46:08.761Z,33.40
2018-07-22T13:48:37.343Z,32.60
2018-07-22T13:58:39.305Z,32.60
2018-07-22T14:01:13.535Z,31.30
2018-07-22T14:03:42.124Z,30.50
2018-07-22T14:06:16.102Z,31.00
2018-07-22T14:08:56.593Z,31.30
2018-07-22T14:11:34.806Z,31.30
2018-07-22T14:14:09.180Z,31.30
2018-07-22T14:16:37.703Z,30.70
2018-07-22T14:19:12.129Z,30.40
2018-07-22T14:21:40.880Z,31.60
2018-07-22T14:24:09.193Z,33.20
2018-07-22T14:26:42.504Z,32.70
2018-07-22T14:31:40.064Z,31.40
2018-07-22T14:34:08.622Z,30.40
2018-07-22T14:36:36.925Z,30.00
2018-07-22T14:39:07.956Z,30.00
2018-07-22T14:41:36.236Z,29.80
2018-07-22T14:46:32.532Z,30.90
2018-07-22T14:49:00.797Z,33.10
2018-07-22T14:51:29.056Z,31.30
2018-07-22T14:53:57.320Z,30.50
2018-07-22T14:56:25.645Z,30.90
2018-07-22T14:58:53.905Z,31.60
2018-07-22T15:01:24.189Z,30.80
2018-07-22T15:03:52.448Z,31.10
2018-07-22T15:06:21.428Z,31.00
2018-07-22T15:08:58.603Z,31.30
2018-07-22T15:14:16.395Z,31.40
2018-07-22T15:16:54.753Z,31.70
2018-07-22T15:19:24.556Z,31.10
2018-07-22T15:22:10.556Z,31.60
2018-07-22T15:24:53.400Z,32.40
2018-07-22T15:30:07.704Z,31.80
2018-07-22T15:32:41.101Z,31.10
2018-07-22T15:35:11.066Z,31.20
2018-07-22T15:37:40.348Z,32.40
2018-07-22T15:40:09.580Z,33.00
2018-07-22T15:42:42.002Z,33.10
2018-07-22T15:45:10.560Z,32.80
2018-07-22T15:47:41.047Z,33.00
2018-07-22T15:50:10.258Z,34.00
2018-07-22T15:52:41.505Z,33.80
2018-07-22T15:55:10.424Z,33.30
2018-07-22T15:57:42.534Z,33.20
2018-07-22T16:00:11.217Z,33.10
2018-07-22T16:02:39.700Z,32.90
2018-07-22T16:07:35.992Z,33.60
2018-07-22T16:10:04.096Z,33.10
2018-07-22T16:12:32.195Z,32.80
2018-07-22T16:15:00.268Z,32.60
2018-07-22T16:17:28.369Z,32.80
2018-07-22T16:19:57.455Z,33.50
2018-07-22T16:22:25.564Z,33.60
2018-07-22T16:24:53.656Z,34.00
2018-07-22T16:27:21.734Z,34.70
2018-07-22T16:29:49.848Z,34.10
2018-07-22T16:32:17.955Z,34.30
2018-07-22T16:34:46.022Z,34.40
2018-07-22T16:37:14.103Z,35.30
2018-07-22T16:39:42.183Z,35.10
2018-07-22T16:42:10.313Z,35.00
2018-07-22T16:44:38.391Z,34.50
2018-07-22T16:47:06.470Z,34.40
2018-07-22T16:49:34.574Z,33.90
2018-07-22T16:52:02.660Z,35.40
2018-07-22T16:54:30.768Z,35.30
2018-07-22T16:56:58.866Z,35.60
2018-07-22T16:59:26.935Z,35.70
2018-07-22T17:01:55.000Z,35.60
2018-07-22T17:04:23.128Z,35.90
2018-07-22T17:06:51.199Z,36.20
2018-07-22T17:09:19.294Z,35.90
2018-07-22T17:16:43.107Z,36.00
2018-07-22T17:21:39.076Z,36.20
2018-07-22T17:24:09.727Z,36.30
2018-07-22T17:26:37.838Z,36.20
2018-07-22T17:29:05.916Z,36.60
2018-07-22T17:34:01.884Z,36.50
2018-07-22T17:36:29.958Z,36.60
2018-07-22T17:38:58.068Z,36.70
2018-07-22T17:41:26.159Z,36.80
2018-07-22T17:43:54.232Z,36.60
2018-07-22T17:46:22.405Z,37.40
2018-07-22T17:48:50.509Z,37.50
2018-07-22T17:51:18.579Z,37.90
2018-07-22T17:53:46.707Z,38.50
2018-07-22T17:56:21.235Z,38.50
2018-07-22T17:58:49.374Z,38.00
2018-07-22T18:01:17.481Z,38.20
2018-07-22T18:03:45.600Z,38.90
2018-07-22T18:06:13.715Z,39.50
2018-07-22T18:08:41.804Z,39.80
2018-07-22T18:11:09.910Z,40.10
2018-07-22T18:13:38.051Z,40.40
2018-07-22T18:16:06.167Z,41.10
2018-07-22T18:18:34.246Z,41.60
2018-07-22T18:21:02.407Z,42.00
2018-07-22T18:23:30.506Z,43.00
2018-07-22T18:25:58.667Z,42.60
2018-07-22T18:28:26.784Z,43.40
2018-07-22T18:30:54.892Z,42.80
2018-07-22T18:33:23.005Z,42.90
2018-07-22T18:35:51.096Z,43.00
2018-07-22T18:38:19.285Z,43.10
2018-07-22T18:40:47.476Z,43.30
2018-07-22T18:43:15.587Z,43.30
2018-07-22T18:45:43.683Z,43.40
2018-07-22T18:48:11.824Z,43.50
2018-07-22T18:50:39.937Z,43.60
2018-07-22T18:53:08.038Z,43.70
2018-07-22T18:58:10.613Z,43.20
2018-07-22T19:00:38.723Z,43.90
2018-07-22T19:03:06.827Z,44.00
2018-07-22T19:05:34.961Z,44.00
2018-07-22T19:08:03.063Z,44.20
2018-07-22T19:10:31.168Z,44.50
2018-07-22T19:12:59.258Z,44.70
2018-07-22T19:15:27.415Z,44.90
2018-07-22T19:17:55.534Z,45.00
2018-07-22T19:20:23.643Z,45.30
2018-07-22T19:22:51.743Z,45.40
2018-07-22T19:25:19.898Z,45.40
2018-07-22T19:27:48.098Z,45.70
2018-07-22T19:30:16.260Z,45.70
2018-07-22T19:32:44.651Z,45.90
2018-07-22T19:35:12.743Z,46.00
2018-07-22T19:37:40.890Z,46.10
2018-07-22T19:40:09.044Z,46.50
2018-07-22T19:42:37.259Z,46.60
2018-07-22T19:47:33.235Z,47.00
2018-07-22T19:50:01.371Z,47.10
2018-07-22T19:52:29.552Z,47.00
2018-07-22T19:57:25.546Z,46.60
2018-07-22T19:59:53.648Z,46.90
2018-07-22T20:02:22.150Z,47.00
2018-07-22T20:04:50.232Z,46.90
2018-07-22T20:07:18.310Z,46.30
2018-07-22T20:09:46.479Z,45.60
2018-07-22T20:14:42.465Z,44.40
2018-07-22T20:17:10.720Z,44.20
2018-07-22T20:19:38.831Z,43.90
2018-07-22T20:22:06.927Z,43.60
2018-07-22T20:24:35.007Z,43.50
2018-07-22T20:29:30.974Z,43.20
2018-07-22T20:31:59.072Z,43.20
2018-07-22T20:34:27.166Z,43.10
2018-07-22T20:36:55.266Z,43.10
2018-07-22T20:39:23.364Z,43.10
2018-07-22T20:41:51.504Z,43.00
2018-07-22T20:46:47.517Z,42.90
2018-07-22T20:49:15.613Z,42.80
2018-07-22T20:51:43.711Z,42.30
2018-07-22T20:54:11.812Z,42.80
2018-07-22T20:56:39.918Z,42.80
2018-07-22T20:59:08.059Z,42.70
2018-07-22T21:01:36.238Z,42.70
2018-07-22T21:04:04.338Z,42.70
2018-07-22T21:06:32.550Z,42.70
2018-07-22T21:09:00.615Z,42.50
2018-07-22T21:11:39.447Z,42.50
2018-07-22T21:14:07.556Z,42.40
2018-07-22T21:16:35.659Z,42.30
2018-07-22T21:19:03.759Z,42.30
2018-07-22T21:23:59.718Z,42.40
2018-07-22T21:26:27.816Z,42.40
2018-07-22T21:28:55.895Z,42.40
2018-07-22T21:31:27.810Z,42.30
2018-07-22T21:33:55.896Z,42.20
2018-07-22T21:36:24.004Z,42.20
2018-07-22T21:41:20.297Z,42.00
2018-07-22T21:43:48.729Z,42.30
2018-07-22T21:46:17.236Z,42.40
2018-07-22T21:48:45.604Z,42.30
2018-07-22T21:51:13.929Z,42.30
2018-07-22T21:53:42.153Z,42.30
2018-07-22T21:58:38.850Z,42.30
2018-07-22T22:01:07.166Z,42.40
2018-07-22T22:03:35.471Z,42.30
2018-07-22T22:06:03.853Z,42.40
2018-07-22T22:08:32.186Z,42.40
2018-07-22T22:13:28.517Z,42.40
2018-07-22T22:15:56.849Z,42.40
2018-07-22T22:20:53.188Z,42.40
2018-07-22T22:23:21.465Z,42.40
2018-07-22T22:25:49.808Z,42.50
2018-07-22T22:30:46.241Z,42.50
2018-07-22T22:33:14.689Z,43.10
2018-07-22T22:35:43.040Z,42.50
2018-07-22T22:38:11.369Z,42.50
2018-07-22T22:40:39.931Z,42.50
2018-07-22T22:43:08.552Z,42.60
2018-07-22T22:48:05.654Z,42.70
2018-07-22T22:50:34.005Z,42.60
2018-07-22T22:53:02.762Z,42.70
2018-07-22T22:55:31.020Z,42.60
2018-07-22T22:58:10.786Z,42.60
2018-07-22T23:00:39.057Z,42.70
2018-07-22T23:03:07.535Z,42.70
2018-07-22T23:05:35.769Z,42.90
2018-07-22T23:08:04.106Z,42.90
2018-07-22T23:10:32.338Z,42.90
2018-07-22T23:13:02.840Z,42.90
2018-07-22T23:15:31.169Z,42.90
2018-07-22T23:17:59.613Z,42.90
2018-07-22T23:20:27.857Z,43.00
2018-07-22T23:22:56.105Z,43.00
2018-07-22T23:30:20.436Z,43.00
2018-07-22T23:32:48.769Z,43.10
2018-07-22T23:35:17.048Z,43.10
2018-07-22T23:37:45.281Z,43.20
2018-07-22T23:40:13.660Z,43.10
2018-07-22T23:42:41.960Z,43.20
2018-07-22T23:45:10.237Z,43.30
2018-07-22T23:47:38.501Z,43.30
2018-07-22T23:52:35.048Z,43.40
2018-07-22T23:55:03.321Z,43.40
2018-07-22T23:57:31.889Z,43.50
